createdAt,value
2019-03-12T00:00:37.559Z,11.10
2019-03-12T00:03:05.117Z,11.77
2019-03-12T00:05:32.688Z,11.73
2019-03-12T00:08:00.266Z,12.57
2019-03-12T00:10:27.893Z,11.90
2019-03-12T00:12:55.514Z,10.33
2019-03-12T00:15:23.191Z,10.60
2019-03-12T00:17:50.871Z,11.47
2019-03-12T00:20:18.458Z,5.50
2019-03-12T00:22:46.091Z,10.10
2019-03-12T00:25:13.712Z,12.37
2019-03-12T00:27:41.302Z,11.50
2019-03-12T00:30:09.084Z,6.20
2019-03-12T00:32:36.694Z,10.77
2019-03-12T00:35:04.993Z,8.87
2019-03-12T00:37:32.628Z,7.63
2019-03-12T00:40:00.364Z,7.13
2019-03-12T00:42:28.021Z,9.53
2019-03-12T00:44:55.578Z,7.40
2019-03-12T00:47:23.196Z,8.40
2019-03-12T00:49:50.807Z,10.20
2019-03-12T00:52:21.335Z,8.20
2019-03-12T00:54:48.960Z,5.57
2019-03-12T00:57:16.591Z,6.10
2019-03-12T00:59:44.151Z,7.13
2019-03-12T01:02:11.844Z,5.93
2019-03-12T01:04:39.493Z,9.27
2019-03-12T01:07:07.124Z,11.40
2019-03-12T01:09:34.687Z,10.73
2019-03-12T01:12:02.371Z,6.87
2019-03-12T01:14:29.949Z,10.93
2019-03-12T01:16:57.645Z,5.53
2019-03-12T01:19:25.292Z,11.13
2019-03-12T01:21:52.847Z,5.77
2019-03-12T01:24:20.629Z,5.13
2019-03-12T01:26:48.215Z,10.80
2019-03-12T01:29:15.822Z,11.03
2019-03-12T01:31:43.447Z,10.70
2019-03-12T01:34:11.079Z,6.83
2019-03-12T01:36:38.707Z,8.63
2019-03-12T01:39:06.751Z,6.40
2019-03-12T01:41:34.375Z,10.00
2019-03-12T01:44:02.021Z,12.03
2019-03-12T01:46:29.656Z,9.00
2019-03-12T01:48:57.278Z,7.13
2019-03-12T01:51:24.869Z,8.83
2019-03-12T01:53:52.490Z,7.67
2019-03-12T01:56:20.060Z,14.87
2019-03-12T01:58:47.688Z,10.53
2019-03-12T02:01:15.278Z,5.80
2019-03-12T02:03:42.947Z,8.50
2019-03-12T02:06:10.554Z,8.83
2019-03-12T02:08:38.177Z,8.23
2019-03-12T02:11:05.770Z,4.97
2019-03-12T02:13:33.567Z,19.67
2019-03-12T02:16:01.137Z,8.97
2019-03-12T02:18:28.753Z,10.17
2019-03-12T02:20:56.400Z,10.57
2019-03-12T02:23:24.004Z,9.30
2019-03-12T02:25:51.642Z,10.17
2019-03-12T02:28:19.228Z,9.87
2019-03-12T02:30:46.836Z,9.50
2019-03-12T02:33:14.459Z,12.47
2019-03-12T02:35:42.200Z,14.43
2019-03-12T02:38:09.811Z,11.80
2019-03-12T02:40:37.375Z,9.07
2019-03-12T02:43:05.042Z,12.37
2019-03-12T02:45:32.640Z,8.63
2019-03-12T02:48:00.289Z,12.83
2019-03-12T02:50:28.026Z,16.93
2019-03-12T02:52:55.650Z,13.07
2019-03-12T02:55:23.264Z,15.20
2019-03-12T02:57:50.913Z,7.97
2019-03-12T03:00:21.967Z,9.63
2019-03-12T03:02:49.685Z,10.93
2019-03-12T03:05:17.346Z,8.23
2019-03-12T03:07:52.707Z,10.83
2019-03-12T03:10:20.384Z,14.57
2019-03-12T03:12:48.104Z,11.57
2019-03-12T03:15:23.480Z,12.47
2019-03-12T03:17:51.150Z,14.07
2019-03-12T03:20:18.760Z,16.87
2019-03-12T03:22:46.381Z,15.37
2019-03-12T03:25:15.228Z,14.17
2019-03-12T03:27:42.850Z,19.80
2019-03-12T03:30:13.925Z,13.90
2019-03-12T03:32:41.530Z,19.50
2019-03-12T03:35:09.180Z,20.97
2019-03-12T03:37:36.898Z,11.73
2019-03-12T03:40:05.367Z,18.23
2019-03-12T03:42:32.987Z,15.37
2019-03-12T03:45:00.645Z,19.93
2019-03-12T03:47:28.184Z,16.40
2019-03-12T03:49:55.801Z,9.87
2019-03-12T03:52:23.419Z,14.80
2019-03-12T03:54:51.017Z,16.67
2019-03-12T03:57:18.593Z,16.40
2019-03-12T03:59:46.612Z,10.20
2019-03-12T04:02:14.226Z,16.77
2019-03-12T04:04:41.887Z,9.80
2019-03-12T04:07:09.490Z,17.37
2019-03-12T04:09:37.099Z,14.57
2019-03-12T04:12:04.680Z,14.70
2019-03-12T04:14:32.301Z,11.37
2019-03-12T04:16:59.943Z,15.90
2019-03-12T04:19:27.605Z,16.13
2019-03-12T04:21:55.241Z,12.53
2019-03-12T04:24:22.881Z,14.30
2019-03-12T04:26:51.620Z,16.80
2019-03-12T04:29:19.245Z,10.57
2019-03-12T04:31:46.892Z,17.50
2019-03-12T04:34:17.024Z,13.17
2019-03-12T04:36:45.248Z,13.70
2019-03-12T04:39:12.891Z,16.37
2019-03-12T04:41:40.472Z,13.00
2019-03-12T04:44:08.216Z,11.63
2019-03-12T04:46:35.813Z,16.37
2019-03-12T04:49:03.474Z,17.83
2019-03-12T04:51:31.090Z,13.87
2019-03-12T04:53:58.802Z,21.00
2019-03-12T04:56:26.437Z,18.83
2019-03-12T04:58:54.035Z,12.23
2019-03-12T05:01:21.680Z,14.70
2019-03-12T05:03:49.247Z,17.50
2019-03-12T05:06:19.628Z,14.00
2019-03-12T05:08:46.284Z,24.17
2019-03-12T05:11:13.956Z,14.27
2019-03-12T05:13:41.535Z,19.23
2019-03-12T05:16:09.155Z,19.07
2019-03-12T05:18:36.770Z,18.17
2019-03-12T05:21:04.371Z,16.17
2019-03-12T05:23:31.984Z,21.73
2019-03-12T05:25:59.563Z,18.60
2019-03-12T05:28:27.180Z,15.60
2019-03-12T05:30:54.793Z,21.00
2019-03-12T05:33:22.530Z,17.40
2019-03-12T05:35:50.146Z,15.83
2019-03-12T05:38:17.791Z,24.97
2019-03-12T05:40:45.429Z,21.87
2019-03-12T05:43:13.091Z,28.17
2019-03-12T05:45:40.743Z,27.70
2019-03-12T05:48:08.340Z,22.57
2019-03-12T05:50:35.953Z,26.37
2019-03-12T05:53:13.484Z,24.67
2019-03-12T05:55:41.127Z,21.97
2019-03-12T05:58:08.707Z,25.97
2019-03-12T06:00:36.356Z,22.60
2019-03-12T06:03:04.041Z,25.20
2019-03-12T06:05:31.668Z,27.13
2019-03-12T06:08:00.212Z,24.00
2019-03-12T06:10:27.948Z,23.70
2019-03-12T06:12:55.568Z,23.33
2019-03-12T06:15:23.200Z,19.90
2019-03-12T06:17:50.807Z,17.37
2019-03-12T06:20:18.444Z,22.73
2019-03-12T06:22:46.074Z,21.43
2019-03-12T06:25:13.784Z,20.87
2019-03-12T06:27:41.400Z,15.17
2019-03-12T06:30:10.037Z,18.17
2019-03-12T06:32:57.133Z,15.47
2019-03-12T06:35:32.100Z,14.00
2019-03-12T06:38:19.295Z,19.00
2019-03-12T06:40:58.024Z,22.63
2019-03-12T06:43:31.962Z,17.93
2019-03-12T06:46:30.863Z,14.63
2019-03-12T06:49:05.391Z,25.87
2019-03-12T06:51:58.371Z,16.73
2019-03-12T06:54:41.371Z,17.33
2019-03-12T06:57:46.252Z,16.97
2019-03-12T07:00:51.185Z,19.97
2019-03-12T07:03:38.087Z,16.10
2019-03-12T07:06:25.170Z,13.60
2019-03-12T07:09:12.274Z,14.53
2019-03-12T07:12:02.151Z,13.67
2019-03-12T07:14:40.735Z,15.37
2019-03-12T07:17:30.844Z,13.20
2019-03-12T07:20:17.923Z,17.83
2019-03-12T07:22:59.539Z,15.40
2019-03-12T07:25:41.547Z,9.50
2019-03-12T07:28:31.672Z,16.20
2019-03-12T07:31:08.447Z,14.87
2019-03-12T07:33:57.201Z,12.40
2019-03-12T07:37:02.287Z,11.87
2019-03-12T07:39:48.038Z,10.40
2019-03-12T07:42:36.487Z,8.57
2019-03-12T07:45:16.042Z,16.10
2019-03-12T07:48:03.191Z,11.93
2019-03-12T07:50:48.912Z,10.67
2019-03-12T07:53:26.475Z,11.30
2019-03-12T07:56:14.256Z,15.00
2019-03-12T07:59:08.998Z,12.17
2019-03-12T08:02:02.243Z,11.40
2019-03-12T08:04:43.427Z,12.67
2019-03-12T08:07:29.970Z,10.83
2019-03-12T08:10:22.822Z,10.47
2019-03-12T08:13:10.756Z,10.60
2019-03-12T08:16:09.540Z,10.23
2019-03-12T08:18:55.231Z,8.57
2019-03-12T08:21:42.325Z,11.03
2019-03-12T08:24:32.848Z,10.23
2019-03-12T08:27:16.364Z,7.27
2019-03-12T08:29:53.986Z,13.37
2019-03-12T08:32:55.945Z,10.57
2019-03-12T08:35:35.278Z,8.97
2019-03-12T08:38:24.592Z,12.97
2019-03-12T08:41:08.227Z,13.10
2019-03-12T08:44:01.347Z,11.50
2019-03-12T08:46:42.827Z,13.07
2019-03-12T08:49:29.872Z,9.57
2019-03-12T08:52:17.101Z,15.87
2019-03-12T08:55:03.759Z,10.77
2019-03-12T08:57:47.010Z,11.43
2019-03-12T09:00:24.436Z,10.13
2019-03-12T09:03:05.539Z,10.80
2019-03-12T09:05:55.664Z,12.37
2019-03-12T09:08:45.784Z,10.40
2019-03-12T09:11:47.803Z,11.70
2019-03-12T09:14:47.023Z,7.30
2019-03-12T09:17:31.620Z,10.60
2019-03-12T09:20:17.292Z,12.97
2019-03-12T09:23:13.490Z,8.47
2019-03-12T09:26:12.379Z,8.30
2019-03-12T09:28:49.010Z,6.97
2019-03-12T09:31:44.872Z,8.63
2019-03-12T09:34:38.018Z,10.07
2019-03-12T09:37:30.956Z,8.43
2019-03-12T09:40:16.639Z,7.90
2019-03-12T09:43:09.112Z,10.93
2019-03-12T09:46:05.438Z,7.90
2019-03-12T09:48:50.648Z,6.80
2019-03-12T09:51:40.690Z,14.03
2019-03-12T09:54:26.154Z,11.10
2019-03-12T09:57:14.100Z,10.97
2019-03-12T09:59:59.632Z,9.03
2019-03-12T10:02:45.282Z,10.83
2019-03-12T10:05:44.381Z,10.67
2019-03-12T10:08:29.939Z,8.63
2019-03-12T10:11:03.864Z,10.57
2019-03-12T10:13:57.081Z,9.10
2019-03-12T10:16:42.641Z,10.50
2019-03-12T10:19:20.003Z,9.43
2019-03-12T10:22:10.125Z,10.83
2019-03-12T10:25:12.144Z,11.30
2019-03-12T10:28:05.291Z,13.27
2019-03-12T10:30:55.340Z,10.30
2019-03-12T10:33:42.434Z,7.43
2019-03-12T10:36:32.640Z,10.07
2019-03-12T10:39:44.315Z,11.47
2019-03-12T10:42:21.097Z,7.10
2019-03-12T10:44:55.691Z,7.50
2019-03-12T10:47:24.009Z,8.07
2019-03-12T10:49:51.591Z,9.63
2019-03-12T10:52:19.215Z,8.70
2019-03-12T10:54:46.876Z,7.83
2019-03-12T10:57:14.924Z,8.37
2019-03-12T10:59:43.374Z,6.90
2019-03-12T11:02:11.351Z,6.10
2019-03-12T11:04:45.014Z,10.30
2019-03-12T11:07:16.697Z,8.67
2019-03-12T11:09:42.344Z,5.57
2019-03-12T11:12:09.979Z,6.13
2019-03-12T11:14:37.585Z,9.63
2019-03-12T11:17:05.159Z,5.33
2019-03-12T11:19:32.775Z,8.10
2019-03-12T11:22:00.483Z,7.83
2019-03-12T11:24:28.081Z,10.77
2019-03-12T11:26:55.714Z,7.73
2019-03-12T11:29:23.358Z,7.63
2019-03-12T11:31:50.954Z,8.13
2019-03-12T11:34:18.605Z,10.07
2019-03-12T11:36:46.261Z,10.47
2019-03-12T11:39:13.862Z,8.50
2019-03-12T11:41:41.495Z,8.60
2019-03-12T11:44:09.191Z,7.73
2019-03-12T11:46:43.565Z,6.77
2019-03-12T11:49:06.223Z,7.77
2019-03-12T11:51:33.809Z,5.60
2019-03-12T11:54:01.443Z,9.10
2019-03-12T11:56:29.004Z,4.70
2019-03-12T11:58:56.682Z,6.63
2019-03-12T12:01:25.536Z,4.97
2019-03-12T12:03:53.137Z,8.57
2019-03-12T12:06:20.725Z,6.53
2019-03-12T12:08:48.413Z,6.13
2019-03-12T12:11:16.067Z,4.50
2019-03-12T12:13:43.741Z,4.57
2019-03-12T12:16:11.751Z,4.47
2019-03-12T12:18:39.456Z,5.23
2019-03-12T12:21:07.073Z,8.00
2019-03-12T12:23:34.668Z,9.27
2019-03-12T12:26:02.824Z,8.13
2019-03-12T12:28:30.444Z,5.83
2019-03-12T12:30:58.091Z,6.87
2019-03-12T12:33:25.657Z,8.27
2019-03-12T12:35:53.332Z,6.60
2019-03-12T12:38:21.005Z,5.77
2019-03-12T12:40:48.639Z,5.60
2019-03-12T12:43:16.250Z,5.43
2019-03-12T12:45:43.915Z,4.67
2019-03-12T12:48:11.488Z,5.90
2019-03-12T12:50:39.112Z,5.37
2019-03-12T12:53:06.825Z,9.40
2019-03-12T12:55:34.469Z,6.53
2019-03-12T12:58:02.051Z,8.60
2019-03-12T13:00:29.758Z,10.17
2019-03-12T13:02:57.350Z,5.57
2019-03-12T13:05:24.972Z,5.03
2019-03-12T13:07:52.536Z,6.10
2019-03-12T13:10:21.817Z,7.60
2019-03-12T13:12:49.444Z,7.00
2019-03-12T13:15:16.705Z,11.13
2019-03-12T13:17:44.509Z,5.60
2019-03-12T13:20:12.388Z,6.93
2019-03-12T13:22:40.008Z,4.97
2019-03-12T13:25:08.092Z,7.73
2019-03-12T13:27:42.332Z,4.73
2019-03-12T13:30:05.948Z,4.27
2019-03-12T13:32:33.575Z,10.40
2019-03-12T13:35:01.426Z,6.93
2019-03-12T13:37:29.047Z,7.03
2019-03-12T13:39:56.643Z,6.77
2019-03-12T13:42:24.283Z,6.83
2019-03-12T13:44:51.981Z,7.07
2019-03-12T13:47:19.614Z,5.70
2019-03-12T13:49:47.289Z,5.77
2019-03-12T13:52:14.934Z,8.63
2019-03-12T13:54:42.537Z,7.77
2019-03-12T13:57:10.168Z,6.37
2019-03-12T13:59:37.789Z,4.43
2019-03-12T14:02:05.582Z,9.27
2019-03-12T14:04:33.215Z,4.80
2019-03-12T14:07:00.866Z,6.67
2019-03-12T14:09:28.527Z,8.43
2019-03-12T14:11:59.078Z,8.60
2019-03-12T14:14:25.574Z,8.70
2019-03-12T14:16:53.230Z,7.27
2019-03-12T14:19:20.900Z,7.30
2019-03-12T14:21:48.547Z,5.53
2019-03-12T14:24:16.476Z,5.97
2019-03-12T14:26:44.083Z,5.23
2019-03-12T14:29:11.816Z,5.73
2019-03-12T14:31:41.190Z,6.53
2019-03-12T14:34:08.773Z,6.83
2019-03-12T14:36:36.535Z,4.33
2019-03-12T14:39:06.248Z,5.23
2019-03-12T14:41:33.900Z,4.63
2019-03-12T14:44:01.536Z,7.77
2019-03-12T14:46:29.249Z,7.17
2019-03-12T14:49:01.831Z,7.67
2019-03-12T14:51:58.014Z,2.97
2019-03-12T14:54:25.623Z,7.00
2019-03-12T14:56:53.248Z,6.07
2019-03-12T14:59:20.881Z,6.20
2019-03-12T15:01:48.606Z,7.23
2019-03-12T15:04:16.251Z,3.40
2019-03-12T15:06:43.819Z,4.57
2019-03-12T15:09:13.076Z,4.60
2019-03-12T15:11:40.673Z,5.37
2019-03-12T15:14:08.267Z,5.03
2019-03-12T15:16:36.943Z,3.90
2019-03-12T15:19:04.588Z,4.70
2019-03-12T15:21:32.195Z,4.83
2019-03-12T15:23:59.794Z,3.50
2019-03-12T15:26:27.435Z,3.50
2019-03-12T15:28:55.036Z,5.07
2019-03-12T15:31:22.672Z,4.00
2019-03-12T15:33:50.319Z,3.23
2019-03-12T15:36:18.072Z,3.87
2019-03-12T15:38:45.682Z,5.47
2019-03-12T15:41:13.305Z,4.37
2019-03-12T15:43:40.998Z,4.63
2019-03-12T15:46:08.612Z,4.10
2019-03-12T15:48:36.230Z,3.60
2019-03-12T15:51:03.770Z,6.87
2019-03-12T15:53:31.424Z,5.73
2019-03-12T15:55:59.023Z,3.33
2019-03-12T15:58:26.668Z,6.10
2019-03-12T16:00:54.303Z,5.07
2019-03-12T16:03:21.958Z,8.53
2019-03-12T16:05:49.587Z,4.57
2019-03-12T16:08:17.193Z,5.00
2019-03-12T16:10:56.891Z,4.47
2019-03-12T16:13:14.288Z,4.87
2019-03-12T16:15:41.996Z,5.77
2019-03-12T16:18:09.595Z,4.77
2019-03-12T16:20:37.180Z,3.70
2019-03-12T16:23:05.024Z,5.20
2019-03-12T16:25:32.660Z,5.33
2019-03-12T16:28:00.180Z,3.67
2019-03-12T16:30:27.812Z,5.17
2019-03-12T16:32:55.451Z,5.53
2019-03-12T16:35:23.063Z,3.13
2019-03-12T16:37:50.731Z,6.07
2019-03-12T16:40:18.431Z,4.70
2019-03-12T16:42:46.256Z,4.93
2019-03-12T16:45:13.944Z,9.27
2019-03-12T16:47:41.860Z,7.03
2019-03-12T16:50:10.622Z,5.70
2019-03-12T16:52:38.235Z,3.33
2019-03-12T16:55:05.844Z,7.87
2019-03-12T16:57:33.532Z,6.33
2019-03-12T17:00:01.166Z,4.93
2019-03-12T17:02:28.769Z,2.50
2019-03-12T17:04:56.438Z,4.27
2019-03-12T17:07:24.081Z,5.80
2019-03-12T17:09:51.684Z,5.97
2019-03-12T17:12:19.380Z,4.53
2019-03-12T17:14:46.951Z,3.87
2019-03-12T17:17:14.716Z,5.40
2019-03-12T17:19:42.381Z,6.03
2019-03-12T17:22:09.968Z,3.33
2019-03-12T17:24:37.607Z,6.80
2019-03-12T17:27:05.199Z,6.13
2019-03-12T17:29:32.849Z,10.13
2019-03-12T17:32:00.514Z,3.40
2019-03-12T17:34:35.644Z,4.63
2019-03-12T17:36:57.581Z,6.03
2019-03-12T17:39:25.278Z,4.53
2019-03-12T17:41:59.035Z,5.00
2019-03-12T17:44:26.705Z,7.23
2019-03-12T17:46:54.292Z,6.27
2019-03-12T17:49:22.053Z,6.40
2019-03-12T17:51:49.620Z,3.93
2019-03-12T17:54:17.190Z,2.43
2019-03-12T17:56:44.767Z,5.20
2019-03-12T17:59:12.401Z,6.97
2019-03-12T18:01:40.130Z,5.00
2019-03-12T18:04:07.819Z,4.73
2019-03-12T18:06:35.488Z,5.87
2019-03-12T18:09:08.337Z,5.10
2019-03-12T18:11:34.575Z,3.67
2019-03-12T18:14:02.177Z,6.63
2019-03-12T18:16:40.492Z,3.77
2019-03-12T18:18:59.203Z,8.90
2019-03-12T18:21:26.868Z,5.03
2019-03-12T18:23:54.396Z,4.20
2019-03-12T18:26:21.993Z,6.03
2019-03-12T18:28:49.590Z,6.67
2019-03-12T18:31:17.229Z,6.00
2019-03-12T18:33:44.835Z,11.47
2019-03-12T18:36:12.439Z,4.70
2019-03-12T18:38:40.140Z,6.70
2019-03-12T18:41:07.750Z,6.53
2019-03-12T18:43:35.419Z,7.70
2019-03-12T18:46:03.128Z,7.57
2019-03-12T18:48:30.783Z,4.80
2019-03-12T18:50:58.347Z,7.93
2019-03-12T18:53:26.108Z,6.23
2019-03-12T18:56:02.215Z,3.63
2019-03-12T18:58:29.833Z,7.40
2019-03-12T19:01:00.161Z,4.73
2019-03-12T19:03:27.700Z,6.03
2019-03-12T19:05:55.526Z,3.83
2019-03-12T19:08:23.091Z,5.90
2019-03-12T19:10:50.837Z,8.87
2019-03-12T19:13:18.475Z,9.23
2019-03-12T19:15:46.214Z,8.10
2019-03-12T19:18:13.826Z,7.13
2019-03-12T19:20:41.743Z,6.67
2019-03-12T19:23:09.477Z,7.70
2019-03-12T19:25:38.477Z,10.10
2019-03-12T19:28:06.556Z,6.33
2019-03-12T19:30:34.456Z,5.53
2019-03-12T19:33:04.601Z,4.63
2019-03-12T19:35:32.188Z,7.27
2019-03-12T19:37:59.826Z,5.93
2019-03-12T19:40:27.535Z,6.63
2019-03-12T19:42:55.148Z,4.67
2019-03-12T19:45:22.744Z,4.10
2019-03-12T19:47:50.487Z,5.97
2019-03-12T19:50:18.262Z,4.27
2019-03-12T19:52:45.831Z,6.17
2019-03-12T19:55:15.541Z,6.20
2019-03-12T19:57:43.408Z,6.83
2019-03-12T20:00:13.560Z,4.73
2019-03-12T20:02:42.139Z,8.03
2019-03-12T20:05:10.715Z,4.70
2019-03-12T20:07:38.390Z,6.50
2019-03-12T20:11:08.863Z,7.63
2019-03-12T20:14:18.204Z,2.87
2019-03-12T20:17:35.244Z,4.57
2019-03-12T20:20:40.524Z,3.60
2019-03-12T20:23:39.305Z,3.63
2019-03-12T20:26:54.356Z,2.33
2019-03-12T20:29:59.517Z,3.83
2019-03-12T20:33:32.959Z,7.00
2019-03-12T20:36:57.664Z,6.93
2019-03-12T20:40:12.503Z,3.80
2019-03-12T20:43:09.777Z,5.10
2019-03-12T20:46:28.049Z,5.67
2019-03-12T20:49:25.472Z,3.77
2019-03-12T20:52:58.775Z,2.77
2019-03-12T20:56:02.745Z,4.33
2019-03-12T20:59:13.746Z,4.33
2019-03-12T21:02:42.188Z,2.70
2019-03-12T21:06:09.261Z,4.47
2019-03-12T21:09:24.665Z,5.37
2019-03-12T21:12:43.232Z,3.17
2019-03-12T21:15:57.452Z,4.63
2019-03-12T21:19:20.570Z,5.53
2019-03-12T21:22:28.519Z,6.13
2019-03-12T21:25:34.000Z,2.73
2019-03-12T21:28:49.355Z,4.93
2019-03-12T21:31:16.902Z,3.70
2019-03-12T21:33:44.607Z,3.30
2019-03-12T21:36:12.537Z,4.00
2019-03-12T21:38:40.161Z,4.83
2019-03-12T21:41:07.903Z,2.47
2019-03-12T21:43:35.437Z,2.90
2019-03-12T21:46:03.082Z,3.00
2019-03-12T21:48:30.656Z,3.47
2019-03-12T21:50:58.267Z,2.27
2019-03-12T21:53:25.823Z,1.43
2019-03-12T21:55:53.599Z,4.13
2019-03-12T21:58:21.225Z,4.17
2019-03-12T22:00:48.764Z,3.80
2019-03-12T22:03:16.688Z,3.10
2019-03-12T22:05:44.376Z,5.53
2019-03-12T22:08:12.167Z,2.13
2019-03-12T22:10:39.774Z,3.87
2019-03-12T22:13:07.396Z,4.27
2019-03-12T22:15:35.024Z,2.67
2019-03-12T22:18:02.821Z,5.97
2019-03-12T22:20:30.392Z,2.43
2019-03-12T22:23:23.271Z,3.57
2019-03-12T22:25:50.851Z,5.20
2019-03-12T22:28:18.480Z,2.67
2019-03-12T22:30:46.107Z,3.77
2019-03-12T22:33:13.766Z,2.40
2019-03-12T22:35:41.491Z,6.20
2019-03-12T22:38:09.099Z,2.07
2019-03-12T22:40:36.685Z,3.33
2019-03-12T22:43:04.357Z,4.23
2019-03-12T22:45:31.967Z,3.23
2019-03-12T22:47:59.611Z,2.50
2019-03-12T22:50:27.239Z,3.53
2019-03-12T22:52:54.838Z,3.07
2019-03-12T22:55:22.481Z,2.70
2019-03-12T22:57:50.115Z,2.20
2019-03-12T23:00:18.372Z,4.40
2019-03-12T23:02:46.058Z,1.97
2019-03-12T23:05:13.993Z,2.20
2019-03-12T23:07:41.707Z,1.13
2019-03-12T23:10:09.397Z,0.63
2019-03-12T23:12:37.105Z,0.60
2019-03-12T23:15:05.937Z,1.20
2019-03-12T23:17:33.576Z,0.77
2019-03-12T23:20:01.198Z,2.30
2019-03-12T23:22:28.861Z,0.70
2019-03-12T23:24:56.476Z,1.00
2019-03-12T23:27:24.081Z,0.90
2019-03-12T23:29:51.742Z,3.17
2019-03-12T23:32:20.507Z,1.10
2019-03-12T23:34:48.142Z,1.20
2019-03-12T23:37:15.745Z,1.00
2019-03-12T23:39:43.366Z,1.00
2019-03-12T23:42:11.191Z,1.00
2019-03-12T23:44:38.787Z,1.20
2019-03-12T23:47:06.416Z,1.30
2019-03-12T23:49:34.072Z,1.40
2019-03-12T23:52:01.863Z,1.40
2019-03-12T23:54:29.628Z,1.30
2019-03-12T23:56:57.303Z,2.07
2019-03-12T23:59:24.912Z,1.60
